Time;durP1;ratioP1;P1;durP2;ratioP2;P2;SDS_P1;SDS_P2;PMS_P1;PMS_P2;Temp;Humidity;BMP_temperature;BMP_pressure;BME280_temperature;BME280_humidity;BME280_pressure;Samples;Min_cycle;Max_cycle;Signal;HPM_P1;HPM_P2
2022/09/01 00:01:31;;;;;;;2.93;2.73;;;18.40;99.90;;;;;;5024576;28;20396;-80
2022/09/01 00:04:21;;;;;;;3.90;3.23;;;18.50;99.90;;;;;;5016344;28;20740;-81
2022/09/01 00:07:07;;;;;;;5.20;3.50;;;18.50;99.90;;;;;;5025118;28;20396;-81
2022/09/01 00:09:52;;;;;;;3.00;2.80;;;18.60;99.90;;;;;;5023363;28;20446;-80
2022/09/01 00:12:37;;;;;;;2.90;2.70;;;18.60;99.90;;;;;;5024297;28;20391;-80
2022/09/01 00:15:21;;;;;;;3.50;3.10;;;18.80;99.90;;;;;;5024798;28;20594;-80
2022/09/01 00:18:06;;;;;;;3.90;3.60;;;18.90;99.90;;;;;;5024745;28;20395;-81
2022/09/01 00:20:51;;;;;;;2.90;2.70;;;18.90;99.90;;;;;;5024154;28;20404;-80
2022/09/01 00:23:36;;;;;;;4.77;2.97;;;19.00;99.90;;;;;;5024320;28;20455;-80
2022/09/01 00:26:21;;;;;;;3.43;3.20;;;19.00;99.90;;;;;;5024830;28;20392;-81
2022/09/01 00:29:06;;;;;;;3.57;3.27;;;19.10;99.90;;;;;;5024291;28;20391;-81
2022/09/01 00:31:51;;;;;;;3.57;3.37;;;19.00;99.90;;;;;;5023421;28;20399;-80
2022/09/01 00:34:35;;;;;;;4.40;4.00;;;19.00;99.90;;;;;;5025561;28;20912;-81
2022/09/01 00:37:19;;;;;;;3.60;3.33;;;18.90;99.90;;;;;;5009929;28;20400;-81
2022/09/01 00:40:07;;;;;;;3.23;3.03;;;18.80;99.90;;;;;;5024160;28;20444;-81
2022/09/01 00:42:52;;;;;;;3.57;3.27;;;18.80;99.90;;;;;;5025200;28;20451;-80
2022/09/01 00:45:37;;;;;;;4.20;3.87;;;18.80;99.90;;;;;;5024878;28;20492;-81
2022/09/01 00:48:21;;;;;;;3.80;3.50;;;18.80;99.90;;;;;;5024496;28;20392;-81
2022/09/01 00:51:08;;;;;;;3.90;3.60;;;18.70;99.90;;;;;;5009870;28;20463;-81
2022/09/01 00:53:54;;;;;;;5.43;3.50;;;18.70;99.90;;;;;;5025376;28;20396;-81
2022/09/01 00:56:42;;;;;;;3.93;3.23;;;18.70;99.90;;;;;;5025336;28;20998;-81
2022/09/01 00:59:27;;;;;;;3.23;3.03;;;18.60;99.90;;;;;;5025536;28;20400;-81
2022/09/01 01:02:12;;;;;;;3.73;3.47;;;18.60;99.90;;;;;;5025470;28;20447;-81
2022/09/01 01:04:58;;;;;;;3.27;3.00;;;18.60;99.90;;;;;;5037467;28;20390;-78
2022/09/01 01:07:45;;;;;;;3.63;3.27;;;18.60;99.90;;;;;;5042853;28;20400;-78
2022/09/01 01:10:34;;;;;;;2.97;2.77;;;18.60;99.90;;;;;;5042822;28;20431;-79
2022/09/01 01:13:19;;;;;;;5.27;3.47;;;18.50;99.90;;;;;;5035888;28;20391;-80
2022/09/01 01:16:10;;;;;;;4.30;3.87;;;18.60;99.90;;;;;;5013474;28;20480;-80
2022/09/01 01:18:55;;;;;;;3.33;3.03;;;18.60;99.90;;;;;;5010611;28;20401;-81
2022/09/01 01:24:46;;;;;;;3.00;2.80;;;18.50;99.90;;;;;;4998690;28;20396;-81
2022/09/01 01:27:33;;;;;;;5.50;4.33;;;18.50;99.90;;;;;;5010339;28;20989;-81
2022/09/01 01:30:19;;;;;;;3.30;3.00;;;18.40;99.90;;;;;;5011007;28;20417;-80
2022/09/01 01:33:05;;;;;;;4.37;3.67;;;18.40;99.90;;;;;;4997012;28;20399;-81
2022/09/01 01:35:54;;;;;;;3.30;2.90;;;18.50;99.90;;;;;;4997029;28;20963;-81
2022/09/01 01:38:42;;;;;;;5.73;3.17;;;18.50;99.90;;;;;;5011231;28;20421;-81
2022/09/01 01:41:26;;;;;;;5.17;3.30;;;18.40;99.90;;;;;;4999140;28;20389;-80
2022/09/01 01:44:12;;;;;;;4.20;3.27;;;18.40;99.90;;;;;;5020691;28;20421;-78
2022/09/01 01:46:57;;;;;;;7.13;3.23;;;18.30;99.90;;;;;;5022614;28;20395;-78
2022/09/01 01:49:42;;;;;;;4.70;3.53;;;18.40;99.90;;;;;;5022597;28;20440;-80
2022/09/01 01:52:26;;;;;;;4.30;3.40;;;18.30;99.90;;;;;;5022572;28;20404;-79
2022/09/01 01:55:11;;;;;;;4.80;4.30;;;18.30;99.90;;;;;;5022672;28;20457;-80
2022/09/01 01:57:57;;;;;;;7.53;4.43;;;18.20;99.90;;;;;;5023364;28;20431;-80
2022/09/01 02:00:43;;;;;;;8.53;4.40;;;18.10;99.90;;;;;;5023168;28;20412;-78
2022/09/01 02:03:37;;;;;;;4.27;3.60;;;18.10;99.90;;;;;;5011259;28;20517;-81
2022/09/01 02:06:24;;;;;;;3.57;3.27;;;18.10;99.90;;;;;;5010959;28;20389;-80
2022/09/01 02:09:08;;;;;;;3.73;3.43;;;18.00;99.90;;;;;;5011148;28;20392;-81
2022/09/01 02:11:55;;;;;;;3.60;3.30;;;18.00;99.90;;;;;;5011071;28;20400;-81
2022/09/01 02:14:40;;;;;;;3.70;3.37;;;17.90;99.90;;;;;;5016619;28;20518;-80
2022/09/01 02:17:25;;;;;;;4.17;3.77;;;18.00;99.90;;;;;;5026857;28;20399;-80
2022/09/01 02:20:14;;;;;;;3.37;3.10;;;18.00;99.90;;;;;;5027228;28;20951;-80
2022/09/01 02:23:08;;;;;;;4.70;3.87;;;17.90;99.90;;;;;;5026930;28;20542;-80
2022/09/01 02:25:59;;;;;;;5.63;3.00;;;18.00;99.90;;;;;;5027831;28;20400;-80
2022/09/01 02:28:48;;;;;;;5.97;3.93;;;18.00;99.90;;;;;;5031168;28;20431;-81
2022/09/01 02:31:37;;;;;;;4.13;3.77;;;17.90;99.90;;;;;;5034796;28;20392;-81
2022/09/01 02:34:26;;;;;;;3.63;3.33;;;18.00;99.90;;;;;;5027362;28;20416;-81
2022/09/01 02:37:10;;;;;;;3.87;3.53;;;18.00;99.90;;;;;;5027211;28;20392;-81
2022/09/01 02:39:56;;;;;;;3.67;3.47;;;18.00;99.90;;;;;;5026982;28;20395;-81
2022/09/01 02:42:42;;;;;;;3.77;3.47;;;17.90;99.90;;;;;;5026474;28;20967;-81
2022/09/01 02:45:28;;;;;;;3.70;3.40;;;17.80;99.90;;;;;;5027177;28;20528;-80
2022/09/01 02:48:12;;;;;;;4.20;3.57;;;17.80;99.90;;;;;;5026148;28;20896;-81
2022/09/01 02:51:00;;;;;;;3.90;3.60;;;17.70;99.90;;;;;;5026405;28;20903;-81
2022/09/01 02:53:48;;;;;;;3.80;3.20;;;17.70;99.90;;;;;;5026335;28;20396;-81
2022/09/01 02:56:33;;;;;;;3.30;3.10;;;17.60;99.90;;;;;;5026242;28;20911;-81
2022/09/01 02:59:20;;;;;;;4.37;3.97;;;17.60;99.90;;;;;;5026213;28;20432;-80
2022/09/01 03:02:07;;;;;;;3.53;3.23;;;17.50;99.90;;;;;;5025832;28;20858;-80
2022/09/01 03:04:53;;;;;;;3.17;2.90;;;17.50;99.90;;;;;;5039530;28;20445;-81
2022/09/01 03:07:37;;;;;;;4.30;3.40;;;17.50;99.90;;;;;;5026234;28;20428;-81
2022/09/01 03:10:26;;;;;;;3.50;3.27;;;17.50;99.90;;;;;;5026173;28;20448;-81
2022/09/01 03:13:15;;;;;;;3.87;3.57;;;17.50;99.90;;;;;;5026738;28;20715;-81
2022/09/01 03:15:59;;;;;;;4.13;3.73;;;17.50;99.90;;;;;;5009922;28;20456;-81
2022/09/01 03:18:43;;;;;;;3.73;3.43;;;17.50;99.90;;;;;;5006788;28;20431;-81
2022/09/01 03:21:30;;;;;;;3.77;3.10;;;17.50;99.90;;;;;;5007770;28;20395;-80
2022/09/01 03:24:16;;;;;;;5.43;3.67;;;17.50;99.90;;;;;;5006557;28;20396;-81
2022/09/01 03:27:02;;;;;;;3.70;3.40;;;17.40;99.90;;;;;;5005833;28;20400;-81
2022/09/01 03:29:47;;;;;;;3.53;3.33;;;17.40;99.90;;;;;;5006743;28;20392;-80
2022/09/01 03:32:32;;;;;;;3.90;3.60;;;17.40;99.90;;;;;;5006426;28;20388;-80
2022/09/01 03:35:17;;;;;;;3.70;3.40;;;17.40;99.90;;;;;;5012532;28;20444;-79
2022/09/01 03:38:02;;;;;;;3.90;3.53;;;17.40;99.90;;;;;;5018664;28;20428;-80
2022/09/01 03:40:49;;;;;;;4.10;3.73;;;17.40;99.90;;;;;;5003583;28;20449;-81
2022/09/01 03:43:34;;;;;;;4.23;3.93;;;17.40;99.90;;;;;;5017863;28;20451;-80
2022/09/01 03:46:20;;;;;;;4.20;3.80;;;17.40;99.90;;;;;;5014772;28;20468;-82
2022/09/01 03:49:06;;;;;;;3.80;3.60;;;17.40;99.90;;;;;;5014565;28;20426;-81
2022/09/01 03:51:56;;;;;;;3.80;3.50;;;17.40;99.90;;;;;;5016863;28;20481;-81
2022/09/01 03:54:40;;;;;;;4.53;4.10;;;17.30;99.90;;;;;;4990787;28;20414;-81
2022/09/01 03:57:27;;;;;;;3.60;3.30;;;17.20;99.90;;;;;;5000387;28;20475;-81
2022/09/01 04:00:19;;;;;;;4.37;3.97;;;17.20;99.90;;;;;;5005348;28;20462;-81
2022/09/01 04:03:07;;;;;;;12.53;4.93;;;17.20;99.90;;;;;;5005798;28;20452;-82
2022/09/01 04:05:53;;;;;;;4.07;3.77;;;17.20;99.90;;;;;;5005098;28;20457;-81
2022/09/01 04:08:38;;;;;;;4.47;4.17;;;17.20;99.90;;;;;;5005143;28;20392;-81
2022/09/01 04:11:22;;;;;;;3.90;3.60;;;17.20;99.90;;;;;;5004557;28;20416;-81
2022/09/01 04:14:09;;;;;;;4.30;4.00;;;17.10;99.90;;;;;;5005988;28;20451;-81
2022/09/01 04:19:57;;;;;;;4.17;3.87;;;17.10;99.90;;;;;;5028425;28;20435;-81
2022/09/01 04:22:41;;;;;;;7.80;4.50;;;17.10;99.90;;;;;;5024555;28;20971;-81
2022/09/01 04:25:26;;;;;;;4.63;4.13;;;17.10;99.90;;;;;;5009843;28;20451;-81
2022/09/01 04:28:16;;;;;;;5.10;4.67;;;17.10;99.90;;;;;;5025254;28;20952;-81
2022/09/01 04:31:07;;;;;;;5.33;3.90;;;17.10;99.90;;;;;;5011109;28;20472;-81
2022/09/01 04:33:52;;;;;;;5.00;4.60;;;17.00;99.90;;;;;;5010104;28;20404;-81
2022/09/01 04:36:37;;;;;;;4.57;4.17;;;17.00;99.90;;;;;;5025042;28;20450;-81
2022/09/01 04:39:22;;;;;;;4.37;4.00;;;17.10;99.90;;;;;;5024553;28;20403;-81
2022/09/01 04:42:08;;;;;;;4.40;4.00;;;17.00;99.90;;;;;;5024499;28;20530;-81
2022/09/01 04:44:56;;;;;;;4.63;4.07;;;17.00;99.90;;;;;;5024255;28;20404;-81
2022/09/01 04:47:41;;;;;;;4.17;3.90;;;17.00;99.90;;;;;;5024471;28;20395;-81
2022/09/01 04:50:29;;;;;;;3.30;3.10;;;17.10;99.90;;;;;;5023714;28;20399;-81
2022/09/01 04:53:17;;;;;;;4.23;3.87;;;17.00;99.90;;;;;;5023998;28;20924;-81
2022/09/01 04:56:04;;;;;;;3.70;3.43;;;17.10;99.90;;;;;;5024908;28;20439;-81
2022/09/01 04:58:50;;;;;;;5.03;4.00;;;17.10;99.90;;;;;;5024037;28;20403;-80
2022/09/01 05:01:42;;;;;;;7.13;4.30;;;17.10;99.90;;;;;;5024475;28;20407;-81
2022/09/01 05:04:32;;;;;;;7.50;4.50;;;17.10;99.90;;;;;;5005840;28;20412;-81
2022/09/01 05:07:20;;;;;;;4.63;4.23;;;17.10;99.90;;;;;;4974906;28;20443;-81
2022/09/01 05:10:05;;;;;;;4.90;4.50;;;17.20;99.90;;;;;;5003776;28;20489;-81
2022/09/01 05:12:51;;;;;;;6.67;4.17;;;17.20;99.90;;;;;;5004470;28;20396;-81
2022/09/01 05:15:38;;;;;;;6.63;4.63;;;17.10;99.90;;;;;;5004314;28;20506;-81
2022/09/01 05:18:23;;;;;;;4.57;3.67;;;17.20;99.90;;;;;;5004780;28;20392;-81
2022/09/01 05:21:09;;;;;;;7.63;4.67;;;17.10;99.90;;;;;;5004101;28;20400;-81
2022/09/01 05:23:57;;;;;;;5.33;4.50;;;17.10;99.90;;;;;;5005525;28;20393;-81
2022/09/01 05:26:43;;;;;;;10.10;4.77;;;17.20;99.90;;;;;;5005038;28;20408;-81
2022/09/01 05:29:28;;;;;;;5.60;4.50;;;17.20;99.90;;;;;;5008981;28;20436;-81
2022/09/01 05:32:13;;;;;;;6.57;5.47;;;17.20;99.90;;;;;;5023720;28;20428;-81
2022/09/01 05:34:57;;;;;;;8.60;4.87;;;17.20;99.90;;;;;;5014167;28;20442;-80
2022/09/01 05:37:42;;;;;;;5.17;4.77;;;17.20;99.90;;;;;;5023755;28;20442;-81
2022/09/01 05:40:26;;;;;;;8.03;5.80;;;17.20;99.90;;;;;;5024338;28;20473;-81
2022/09/01 05:43:13;;;;;;;5.03;4.20;;;17.30;99.90;;;;;;5024016;28;20451;-81
2022/09/01 05:45:59;;;;;;;5.27;4.47;;;17.20;99.90;;;;;;5009101;28;20400;-82
2022/09/01 05:48:48;;;;;;;7.23;4.47;;;17.30;99.90;;;;;;5020706;28;20474;-82
2022/09/01 05:51:34;;;;;;;7.33;4.10;;;17.30;99.90;;;;;;5021476;28;20418;-81
2022/09/01 05:54:21;;;;;;;4.30;4.00;;;17.30;99.90;;;;;;5026911;28;20512;-82
2022/09/01 05:57:06;;;;;;;13.00;6.10;;;17.40;99.90;;;;;;5024875;28;20454;-81
2022/09/01 05:59:52;;;;;;;6.87;4.30;;;17.40;99.90;;;;;;5026744;28;20819;-82
2022/09/01 06:02:38;;;;;;;5.13;4.67;;;17.40;99.90;;;;;;5029702;28;20470;-81
2022/09/01 06:05:25;;;;;;;6.50;4.50;;;17.50;99.90;;;;;;5040792;28;20453;-81
2022/09/01 06:08:12;;;;;;;10.20;4.60;;;17.60;99.90;;;;;;5012108;28;20463;-81
2022/09/01 06:10:57;;;;;;;5.67;4.70;;;17.70;99.90;;;;;;5027630;28;20998;-81
2022/09/01 06:13:41;;;;;;;4.80;4.47;;;17.80;99.90;;;;;;5031096;28;20462;-81
2022/09/01 06:16:27;;;;;;;6.97;4.90;;;17.80;99.90;;;;;;5027451;28;20455;-81
2022/09/01 06:19:12;;;;;;;3.80;3.50;;;17.90;99.90;;;;;;5018654;28;20446;-81
2022/09/01 06:21:56;;;;;;;4.80;4.40;;;17.80;99.90;;;;;;5024082;28;21063;-82
2022/09/01 06:24:41;;;;;;;5.00;4.47;;;17.90;99.90;;;;;;5027839;28;20462;-81
2022/09/01 06:27:26;;;;;;;6.40;4.20;;;17.90;99.90;;;;;;5034361;28;20423;-82
2022/09/01 06:30:19;;;;;;;5.83;4.63;;;18.10;99.90;;;;;;5026084;28;20461;-82
2022/09/01 06:33:08;;;;;;;7.73;4.37;;;18.10;99.90;;;;;;5011171;28;20456;-81
2022/09/01 06:35:54;;;;;;;3.80;3.40;;;18.20;99.90;;;;;;5010749;28;20455;-81
2022/09/01 06:38:40;;;;;;;3.97;3.40;;;18.30;99.90;;;;;;5032850;28;20462;-81
2022/09/01 06:41:24;;;;;;;4.47;4.07;;;18.30;99.90;;;;;;5025887;28;20451;-82
2022/09/01 06:44:09;;;;;;;4.50;4.17;;;18.30;99.90;;;;;;5026998;28;20493;-81
2022/09/01 06:46:54;;;;;;;8.83;4.13;;;18.40;99.90;;;;;;5030090;28;20422;-81
2022/09/01 06:49:39;;;;;;;7.80;5.20;;;18.50;99.90;;;;;;5004130;28;20506;-81
2022/09/01 06:52:24;;;;;;;5.80;4.30;;;18.50;99.90;;;;;;5024140;28;20439;-80
2022/09/01 06:55:11;;;;;;;4.50;4.03;;;18.60;99.90;;;;;;5025012;28;20506;-80
2022/09/01 06:57:56;;;;;;;4.00;3.70;;;18.60;99.90;;;;;;5005930;28;20497;-82
2022/09/01 07:00:42;;;;;;;6.50;4.07;;;18.70;99.90;;;;;;5021345;28;20439;-81
2022/09/01 07:03:26;;;;;;;5.57;3.87;;;18.70;99.90;;;;;;5022735;28;20592;-81
2022/09/01 07:06:13;;;;;;;8.13;4.80;;;18.80;99.90;;;;;;5015516;28;20523;-81
2022/09/01 07:09:00;;;;;;;3.90;3.57;;;18.90;99.90;;;;;;5022616;28;20964;-81
2022/09/01 07:11:44;;;;;;;4.33;4.00;;;19.00;99.90;;;;;;5018539;28;20438;-81
2022/09/01 07:14:29;;;;;;;6.10;3.50;;;18.60;99.90;;;;;;5007590;28;20471;-82
2022/09/01 07:17:14;;;;;;;3.80;3.17;;;18.90;99.90;;;;;;5015158;28;20463;-81
2022/09/01 07:19:58;;;;;;;3.43;3.20;;;18.70;99.90;;;;;;5020979;28;20443;-81
2022/09/01 07:22:43;;;;;;;4.97;4.47;;;19.00;99.90;;;;;;5021562;28;20463;-79
2022/09/01 07:25:28;;;;;;;3.60;3.30;;;18.80;99.90;;;;;;5024013;28;20435;-81
2022/09/01 07:28:14;;;;;;;4.80;3.57;;;18.60;99.90;;;;;;5019913;28;20445;-81
2022/09/01 07:30:59;;;;;;;3.17;2.87;;;18.30;99.90;;;;;;5006061;28;20792;-81
2022/09/01 07:33:46;;;;;;;4.90;2.73;;;18.30;99.90;;;;;;5023526;28;21373;-80
2022/09/01 07:36:32;;;;;;;3.47;2.93;;;18.60;99.90;;;;;;5023837;28;20436;-81
2022/09/01 07:39:17;;;;;;;3.37;3.00;;;18.80;99.90;;;;;;5024862;28;20562;-80
2022/09/01 07:42:08;;;;;;;3.20;2.87;;;19.10;99.90;;;;;;5014989;28;20535;-79
2022/09/01 07:44:53;;;;;;;5.30;3.10;;;19.20;99.90;;;;;;5023154;28;20451;-82
2022/09/01 07:47:38;;;;;;;2.90;2.70;;;19.00;99.90;;;;;;5025536;28;20450;-82
2022/09/01 07:50:25;;;;;;;3.97;2.67;;;19.00;99.90;;;;;;5025576;28;20435;-81
2022/09/01 07:53:11;;;;;;;3.27;2.97;;;19.00;99.90;;;;;;5027237;28;20436;-82
2022/09/01 07:55:56;;;;;;;3.63;3.27;;;19.00;99.90;;;;;;5029038;28;20498;-82
2022/09/01 07:58:41;;;;;;;3.50;2.80;;;19.10;99.90;;;;;;5025963;28;20459;-80
2022/09/01 08:01:27;;;;;;;6.53;3.30;;;19.10;99.90;;;;;;5028448;28;20475;-81
2022/09/01 08:04:12;;;;;;;6.33;2.90;;;19.10;99.90;;;;;;5014357;28;20916;-80
2022/09/01 08:06:57;;;;;;;3.60;3.27;;;19.20;99.90;;;;;;5017326;28;20463;-79
2022/09/01 08:09:41;;;;;;;4.07;3.50;;;19.30;99.90;;;;;;5031001;28;20443;-79
2022/09/01 08:12:26;;;;;;;7.50;2.90;;;19.60;99.90;;;;;;5031759;28;20459;-81
2022/09/01 08:15:11;;;;;;;4.07;2.73;;;19.60;99.90;;;;;;5022939;28;20480;-82
2022/09/01 08:17:56;;;;;;;3.00;2.70;;;19.70;99.90;;;;;;5026908;28;20446;-82
2022/09/01 08:20:46;;;;;;;3.50;2.90;;;19.80;99.90;;;;;;5022456;28;20492;-82
2022/09/01 08:23:30;;;;;;;3.30;2.63;;;19.60;99.90;;;;;;5024619;28;20465;-82
2022/09/01 08:26:18;;;;;;;2.83;2.63;;;19.90;99.90;;;;;;5019784;28;20460;-81
2022/09/01 08:29:03;;;;;;;2.40;1.93;;;19.70;99.90;;;;;;5017471;28;20431;-82
2022/09/01 08:31:47;;;;;;;2.43;1.90;;;19.80;99.90;;;;;;4992778;28;20467;-81
2022/09/01 08:34:33;;;;;;;2.63;2.43;;;20.00;99.90;;;;;;5014806;28;20430;-81
2022/09/01 08:37:19;;;;;;;2.47;2.37;;;20.10;99.90;;;;;;5015381;28;20422;-82
2022/09/01 08:40:05;;;;;;;4.27;2.50;;;20.20;99.90;;;;;;5012182;28;20721;-82
2022/09/01 08:43:08;;;;;;;2.30;2.10;;;20.40;99.90;;;;;;5020365;28;20471;-81
2022/09/01 08:45:56;;;;;;;2.37;2.17;;;20.60;99.90;;;;;;5022966;28;20531;-81
2022/09/01 08:48:48;;;;;;;2.60;2.40;;;20.70;99.90;;;;;;5023825;28;20423;-81
2022/09/01 08:51:53;;;;;;;2.90;2.70;;;21.00;99.90;;;;;;5013939;28;20491;-82
2022/09/01 08:54:49;;;;;;;2.27;2.07;;;20.90;99.90;;;;;;5005003;28;20446;-79
2022/09/01 08:57:37;;;;;;;3.20;2.53;;;20.70;99.90;;;;;;5015646;28;20526;-80
2022/09/01 09:00:26;;;;;;;4.07;2.80;;;21.00;99.90;;;;;;5011073;28;20523;-81
2022/09/01 09:03:42;;;;;;;3.53;3.00;;;20.90;99.90;;;;;;5021507;28;20756;-81
2022/09/01 09:06:50;;;;;;;2.40;2.30;;;21.20;99.90;;;;;;4999388;28;20535;-81
2022/09/01 09:09:42;;;;;;;2.40;2.20;;;21.30;99.90;;;;;;5011333;28;20464;-81
2022/09/01 09:12:40;;;;;;;2.50;2.30;;;21.20;99.90;;;;;;5018229;28;21008;-80
2022/09/01 09:15:38;;;;;;;3.50;2.67;;;21.20;99.90;;;;;;5014884;28;20495;-81
2022/09/01 09:18:54;;;;;;;2.43;2.23;;;21.10;99.90;;;;;;4999082;28;20427;-82
2022/09/01 09:21:42;;;;;;;2.83;2.30;;;21.10;99.90;;;;;;5002685;28;20475;-82
2022/09/01 09:24:46;;;;;;;2.43;2.30;;;21.10;99.90;;;;;;5005534;28;20475;-81
2022/09/01 09:27:35;;;;;;;2.90;2.23;;;21.00;99.90;;;;;;5021881;28;20435;-81
2022/09/01 09:30:25;;;;;;;4.23;2.70;;;20.70;99.90;;;;;;5026233;28;20459;-81
2022/09/01 09:33:37;;;;;;;3.67;3.33;;;20.80;99.90;;;;;;5024125;28;20459;-81
2022/09/01 09:36:29;;;;;;;3.00;2.80;;;20.70;99.90;;;;;;5020686;28;20475;-82
2022/09/01 09:39:17;;;;;;;5.57;2.47;;;20.80;99.90;;;;;;5020869;28;20490;-82
2022/09/01 09:42:09;;;;;;;2.73;2.53;;;21.10;99.90;;;;;;5017198;28;20534;-81
2022/09/01 09:44:54;;;;;;;2.53;2.33;;;21.10;99.90;;;;;;5020243;28;20446;-82
2022/09/01 09:47:45;;;;;;;3.80;2.70;;;21.00;99.90;;;;;;5017434;28;20504;-78
2022/09/01 09:50:33;;;;;;;2.90;2.50;;;21.20;99.90;;;;;;4983297;28;20950;-80
2022/09/01 09:53:27;;;;;;;2.40;2.20;;;21.20;99.90;;;;;;4973903;28;20448;-79
2022/09/01 09:56:23;;;;;;;3.20;2.80;;;21.30;99.90;;;;;;5015512;28;20486;-79
2022/09/01 09:59:30;;;;;;;2.70;2.40;;;21.50;99.90;;;;;;4999015;28;20455;-80
2022/09/01 10:02:25;;;;;;;3.07;2.80;;;21.70;99.90;;;;;;5015676;28;20518;-79
2022/09/01 10:05:33;;;;;;;5.87;5.50;;;22.00;99.90;;;;;;5016276;28;20569;-80
2022/09/01 10:08:43;;;;;;;3.30;3.00;;;21.60;99.90;;;;;;5007827;28;20500;-81
2022/09/01 10:11:37;;;;;;;2.33;2.13;;;21.90;99.90;;;;;;5014269;28;20431;-80
2022/09/01 10:14:30;;;;;;;6.50;2.83;;;21.80;99.90;;;;;;5011698;28;20483;-82
2022/09/01 10:17:19;;;;;;;2.57;2.37;;;21.90;99.90;;;;;;4998909;28;20453;-79
2022/09/01 10:20:12;;;;;;;3.03;2.27;;;21.60;99.90;;;;;;4983887;28;20436;-82
2022/09/01 10:22:57;;;;;;;5.00;3.60;;;21.70;99.90;;;;;;4995597;28;20544;-80
2022/09/01 10:25:43;;;;;;;3.70;3.03;;;21.90;99.90;;;;;;5003203;28;20418;-82
2022/09/01 10:28:30;;;;;;;3.50;3.17;;;21.80;99.90;;;;;;4981543;28;20432;-80
2022/09/01 10:31:15;;;;;;;3.00;2.70;;;21.90;99.90;;;;;;4994014;28;20512;-80
2022/09/01 10:34:02;;;;;;;2.90;2.70;;;21.70;99.90;;;;;;4996972;28;21886;-80
2022/09/01 10:36:47;;;;;;;3.20;2.60;;;21.70;99.90;;;;;;4991322;28;20499;-81
2022/09/01 10:39:32;;;;;;;2.63;2.43;;;21.60;99.90;;;;;;4991767;28;20452;-80
2022/09/01 10:42:17;;;;;;;2.90;2.43;;;21.40;99.90;;;;;;4993154;28;20483;-81
2022/09/01 10:45:03;;;;;;;2.40;2.27;;;21.30;99.90;;;;;;4959509;28;20436;-80
2022/09/01 10:47:47;;;;;;;4.90;2.73;;;21.50;99.90;;;;;;4999993;28;20924;-81
2022/09/01 10:50:32;;;;;;;3.47;2.93;;;21.40;99.90;;;;;;4992604;28;20535;-82
2022/09/01 10:53:38;;;;;;;6.83;3.30;;;21.50;99.90;;;;;;4993896;28;20476;-82
2022/09/01 10:56:36;;;;;;;7.00;3.30;;;21.30;99.90;;;;;;4989968;28;20534;-83
2022/09/01 10:59:27;;;;;;;3.30;2.73;;;21.30;99.90;;;;;;4982124;28;21041;-81
2022/09/01 11:02:17;;;;;;;3.70;3.10;;;21.50;99.90;;;;;;4990401;28;20487;-82
2022/09/01 11:05:14;;;;;;;3.20;3.00;;;21.50;99.90;;;;;;4990608;28;20536;-82
2022/09/01 11:07:58;;;;;;;2.83;2.63;;;21.70;99.90;;;;;;4997179;28;20420;-80
2022/09/01 11:10:54;;;;;;;4.73;2.30;;;21.40;99.90;;;;;;4999394;28;20472;-82
2022/09/01 11:13:48;;;;;;;7.63;2.87;;;21.60;99.90;;;;;;4996387;28;20507;-81
2022/09/01 11:16:36;;;;;;;2.70;2.50;;;21.80;99.90;;;;;;4997437;28;20580;-83
2022/09/01 11:19:42;;;;;;;3.40;3.10;;;21.70;99.90;;;;;;4967009;28;20553;-82
2022/09/01 11:22:32;;;;;;;2.43;2.23;;;21.70;99.90;;;;;;4991226;28;20465;-81
2022/09/01 11:25:47;;;;;;;2.93;2.37;;;21.80;99.90;;;;;;4987387;28;20498;-82
2022/09/01 11:28:37;;;;;;;3.90;2.57;;;22.30;99.90;;;;;;4994171;28;20479;-82
2022/09/01 11:31:33;;;;;;;2.40;2.20;;;22.40;99.90;;;;;;4980989;28;20480;-82
2022/09/01 11:34:19;;;;;;;2.33;2.13;;;22.10;99.90;;;;;;4988350;28;20440;-81
2022/09/01 11:37:13;;;;;;;3.80;2.43;;;22.80;99.90;;;;;;4995741;28;20468;-81
2022/09/01 11:40:01;;;;;;;2.77;2.57;;;22.60;99.90;;;;;;4993247;28;20437;-81
2022/09/01 11:42:47;;;;;;;3.53;2.93;;;22.80;99.90;;;;;;4989150;28;20483;-81
2022/09/01 11:45:36;;;;;;;2.50;2.30;;;23.00;99.90;;;;;;4991049;28;20488;-83
2022/09/01 11:48:23;;;;;;;2.80;2.23;;;22.80;99.90;;;;;;4990368;28;20499;-83
2022/09/01 11:51:09;;;;;;;2.80;2.60;;;22.60;99.90;;;;;;4978894;28;20436;-81
2022/09/01 11:53:59;;;;;;;2.67;2.47;;;22.30;99.90;;;;;;4987590;28;20439;-82
2022/09/01 11:56:43;;;;;;;2.80;2.60;;;22.30;99.90;;;;;;4990857;28;20483;-81
2022/09/01 11:59:31;;;;;;;2.50;2.30;;;22.40;99.90;;;;;;4990788;28;20936;-81
2022/09/01 12:02:21;;;;;;;8.53;2.80;;;22.90;99.90;;;;;;4985335;28;20491;-83
2022/09/01 12:05:29;;;;;;;2.70;2.50;;;22.80;99.90;;;;;;4990320;28;20484;-83
2022/09/01 12:08:19;;;;;;;2.30;2.10;;;23.20;99.90;;;;;;4992147;28;20444;-81
2022/09/01 12:11:17;;;;;;;4.77;2.30;;;23.40;99.90;;;;;;4974185;28;20436;-80
2022/09/01 12:14:05;;;;;;;4.73;2.97;;;23.10;99.90;;;;;;4991972;28;20427;-82
2022/09/01 12:17:01;;;;;;;3.53;2.83;;;22.80;99.90;;;;;;4992059;28;20508;-82
2022/09/01 12:19:46;;;;;;;2.33;2.13;;;22.80;99.90;;;;;;4984934;28;20441;-84
2022/09/01 12:22:35;;;;;;;4.30;2.33;;;22.70;99.90;;;;;;4981334;28;20463;-80
2022/09/01 12:25:25;;;;;;;3.83;2.30;;;23.10;99.90;;;;;;4981934;28;20465;-80
2022/09/01 12:28:11;;;;;;;2.60;2.40;;;23.00;99.90;;;;;;4923813;29;20440;-79
2022/09/01 12:31:03;;;;;;;2.17;2.07;;;22.80;99.90;;;;;;4913797;29;20569;-80
2022/09/01 12:33:48;;;;;;;2.77;2.53;;;24.10;99.90;;;;;;4907473;29;20901;-81
2022/09/01 12:36:37;;;;;;;2.40;2.20;;;24.70;99.00;;;;;;4915228;29;20462;-81
2022/09/01 12:39:27;;;;;;;2.40;2.20;;;24.70;98.70;;;;;;4901202;29;20504;-81
2022/09/01 12:42:27;;;;;;;6.33;2.20;;;24.40;95.80;;;;;;4847249;29;20539;-80
2022/09/01 12:45:11;;;;;;;4.10;2.70;;;24.70;95.60;;;;;;4864729;29;20483;-80
2022/09/01 12:47:56;;;;;;;4.63;2.67;;;25.00;94.90;;;;;;4864909;29;20489;-79
2022/09/01 12:50:44;;;;;;;2.83;2.50;;;24.80;94.60;;;;;;4851508;29;20454;-79
2022/09/01 12:53:32;;;;;;;1.93;1.83;;;23.70;95.80;;;;;;4813788;29;20504;-78
2022/09/01 12:56:23;;;;;;;3.50;2.90;;;24.00;96.20;;;;;;4814288;29;20476;-80
2022/09/01 12:59:12;;;;;;;5.53;2.43;;;24.50;94.60;;;;;;4844533;29;20487;-79
2022/09/01 13:01:57;;;;;;;2.10;1.90;;;24.40;93.80;;;;;;4858505;29;20473;-78
2022/09/01 13:04:43;;;;;;;2.50;2.33;;;25.00;94.00;;;;;;4845214;29;20470;-80
2022/09/01 13:07:28;;;;;;;2.13;2.03;;;24.20;93.70;;;;;;4846226;29;20450;-80
2022/09/01 13:10:13;;;;;;;3.03;2.73;;;23.80;94.90;;;;;;4867114;29;20522;-81
2022/09/01 13:13:00;;;;;;;2.70;2.50;;;25.40;94.90;;;;;;4859686;29;21692;-80
2022/09/01 13:15:49;;;;;;;2.80;2.43;;;26.30;90.40;;;;;;4850081;29;20493;-79
2022/09/01 13:18:34;;;;;;;2.47;2.27;;;26.60;89.10;;;;;;4862129;29;20499;-80
2022/09/01 13:21:20;;;;;;;2.70;2.40;;;27.90;83.90;;;;;;4862013;29;20461;-79
2022/09/01 13:24:06;;;;;;;3.40;2.43;;;28.00;78.80;;;;;;4880473;29;20521;-80
2022/09/01 13:26:56;;;;;;;3.20;2.87;;;27.60;77.00;;;;;;4866561;29;20304;-80
2022/09/01 13:29:41;;;;;;;2.50;2.30;;;27.00;78.60;;;;;;4874175;29;20233;-78
2022/09/01 13:32:28;;;;;;;2.53;2.20;;;25.80;87.30;;;;;;4881036;29;20473;-80
2022/09/01 13:35:21;;;;;;;3.70;2.50;;;25.50;86.90;;;;;;4918269;28;20538;-79
2022/09/01 13:38:26;;;;;;;2.13;1.93;;;26.10;81.40;;;;;;4953978;28;20506;-79
2022/09/01 13:41:32;;;;;;;2.10;1.90;;;26.70;79.50;;;;;;4921188;29;20596;-79
2022/09/01 13:44:17;;;;;;;3.67;2.60;;;27.20;74.50;;;;;;4918853;29;20525;-80
2022/09/01 13:47:02;;;;;;;2.20;2.00;;;26.80;75.20;;;;;;4914616;29;20771;-79
2022/09/01 13:49:49;;;;;;;3.13;2.93;;;26.60;80.90;;;;;;4903889;29;20480;-80
2022/09/01 13:52:34;;;;;;;3.20;2.33;;;26.60;75.90;;;;;;4918627;29;20465;-81
2022/09/01 13:55:23;;;;;;;2.23;2.13;;;25.70;77.30;;;;;;4905818;29;20534;-80
2022/09/01 13:58:08;;;;;;;2.40;2.20;;;25.60;78.90;;;;;;4951580;28;20596;-81
2022/09/01 14:00:53;;;;;;;3.20;2.70;;;25.40;80.70;;;;;;4951631;28;20439;-82
2022/09/01 14:03:37;;;;;;;3.00;2.80;;;25.30;82.00;;;;;;4962240;28;20473;-82
2022/09/01 14:06:43;;;;;;;2.40;2.20;;;25.10;85.60;;;;;;4945493;29;20443;-80
2022/09/01 14:09:27;;;;;;;2.77;2.57;;;23.90;87.10;;;;;;4918635;29;20935;-80
2022/09/01 14:12:15;;;;;;;8.93;3.40;;;23.50;90.40;;;;;;4946669;29;20800;-80
2022/09/01 14:15:00;;;;;;;4.23;2.80;;;23.40;91.10;;;;;;4964626;28;20531;-79
2022/09/01 14:17:47;;;;;;;2.40;2.20;;;23.10;91.30;;;;;;4964965;28;20456;-80
2022/09/01 14:20:36;;;;;;;2.83;2.50;;;22.90;91.60;;;;;;4938238;29;20569;-80
2022/09/01 14:23:22;;;;;;;2.33;2.13;;;22.80;90.90;;;;;;4942413;29;20473;-80
2022/09/01 14:26:11;;;;;;;4.63;3.20;;;22.90;92.20;;;;;;4944015;29;20494;-80
2022/09/01 14:28:56;;;;;;;2.60;2.40;;;23.10;93.00;;;;;;4919235;29;20481;-79
2022/09/01 14:31:44;;;;;;;2.87;2.57;;;23.00;93.90;;;;;;4926904;29;20444;-81
2022/09/01 14:34:34;;;;;;;3.23;2.57;;;23.10;93.30;;;;;;4951514;28;20496;-81
2022/09/01 14:37:22;;;;;;;2.67;2.47;;;22.90;92.10;;;;;;4955313;28;20493;-80
2022/09/01 14:40:34;;;;;;;2.60;2.40;;;22.80;91.90;;;;;;4956060;29;20550;-80